Time;durP1;ratioP1;P1;durP2;ratioP2;P2;SDS_P1;SDS_P2;PMS_P1;PMS_P2;Temp;Humidity;BMP_temperature;BMP_pressure;BME280_temperature;BME280_humidity;BME280_pressure;Samples;Min_cycle;Max_cycle;Signal;HPM_P1;HPM_P2
2022/11/25 00:01:59;;;;;;;70.50;28.57;;;;;;;-0.27;85.75;100505.47;3291435;84;20948;-73
2022/11/25 00:06:50;;;;;;;68.57;29.63;;;;;;;-0.27;85.80;100505.47;3340979;84;21104;-73
2022/11/25 00:11:42;;;;;;;70.57;29.82;;;;;;;-0.26;85.79;100507.24;3301628;84;21148;-73
2022/11/25 00:16:33;;;;;;;73.95;31.93;;;;;;;-0.24;85.83;100505.66;3306985;84;20984;-73
2022/11/25 00:21:28;;;;;;;72.53;32.40;;;;;;;-0.22;85.80;100518.11;3317677;84;20939;-72
2022/11/25 00:26:21;;;;;;;78.50;31.40;;;;;;;-0.23;85.68;100515.97;3295743;84;21470;-73
2022/11/25 00:31:16;;;;;;;69.27;31.87;;;;;;;-0.23;85.82;100515.09;3331745;84;20964;-73
2022/11/25 00:36:26;;;;;;;70.30;29.10;;;;;;;-0.22;85.76;100532.17;3340162;84;22124;-73
2022/11/25 00:46:30;;;;;;;71.72;27.45;;;;;;;-0.24;85.74;100533.76;3335319;84;21627;-73
2022/11/25 00:51:21;;;;;;;73.72;29.57;;;;;;;-0.22;85.67;100534.72;3350463;83;20975;-72
2022/11/25 00:56:13;;;;;;;62.62;27.35;;;;;;;-0.21;85.77;100532.67;3327103;84;21046;-73
2022/11/25 01:01:04;;;;;;;70.50;29.70;;;;;;;-0.22;85.65;100535.59;3329733;83;22748;-73
2022/11/25 01:06:01;;;;;;;78.95;31.07;;;;;;;-0.22;85.59;100540.70;3354251;83;21049;-73
2022/11/25 01:11:01;;;;;;;67.80;30.03;;;;;;;-0.22;85.62;100535.59;3301098;84;20998;-73
2022/11/25 01:15:52;;;;;;;71.30;29.63;;;;;;;-0.19;85.65;100534.91;3341307;83;21461;-73
2022/11/25 01:20:43;;;;;;;68.33;28.57;;;;;;;-0.18;85.68;100539.20;3279600;83;21140;-73
2022/11/25 01:25:39;;;;;;;83.40;31.77;;;;;;;-0.18;85.62;100532.81;3299309;83;21545;-73
2022/11/25 01:30:31;;;;;;;81.87;34.58;;;;;;;-0.20;85.49;100537.87;3322135;84;20978;-72
2022/11/25 01:35:22;;;;;;;76.10;31.75;;;;;;;-0.20;85.62;100544.63;3324970;84;21481;-72
2022/11/25 01:40:14;;;;;;;73.97;31.82;;;;;;;-0.20;85.58;100549.74;3309251;84;20968;-73
2022/11/25 01:45:35;;;;;;;76.87;30.97;;;;;;;-0.23;85.60;100548.31;3333410;83;21248;-73
2022/11/25 01:50:34;;;;;;;70.15;29.12;;;;;;;-0.19;85.68;100552.80;3454788;79;21144;-73
2022/11/25 01:55:29;;;;;;;78.12;33.02;;;;;;;-0.21;85.77;100556.94;3386526;83;21028;-73
2022/11/25 02:00:21;;;;;;;80.17;31.10;;;;;;;-0.22;85.69;100560.27;3324149;83;21061;-73
2022/11/25 02:05:18;;;;;;;65.78;27.32;;;;;;;-0.19;85.84;100560.46;3350858;83;21022;-73
2022/11/25 02:10:17;;;;;;;85.47;30.23;;;;;;;-0.22;85.68;100557.72;3384771;83;21064;-73
2022/11/25 02:15:12;;;;;;;86.42;32.78;;;;;;;-0.22;85.68;100557.72;3351274;83;21278;-73
2022/11/25 02:20:13;;;;;;;79.75;32.20;;;;;;;-0.17;85.96;100563.11;3357246;83;20987;-73
2022/11/25 02:25:27;;;;;;;80.90;31.45;;;;;;;-0.16;85.90;100562.30;3351907;83;21329;-73
2022/11/25 02:30:19;;;;;;;83.75;33.13;;;;;;;-0.18;85.78;100567.31;3321363;84;21121;-73
2022/11/25 02:35:38;;;;;;;86.57;32.17;;;;;;;-0.19;85.89;100564.30;3267459;87;20978;-72
2022/11/25 02:40:32;;;;;;;90.73;33.07;;;;;;;-0.18;85.91;100567.31;3373606;83;21548;-72
2022/11/25 02:45:40;;;;;;;74.45;31.37;;;;;;;-0.18;85.85;100560.93;3364087;83;21558;-73
2022/11/25 02:50:31;;;;;;;77.80;29.90;;;;;;;-0.20;85.86;100571.46;3372413;83;20975;-73
2022/11/25 02:55:24;;;;;;;82.92;33.25;;;;;;;-0.19;85.94;100571.96;3193232;87;21036;-73
2022/11/25 03:00:17;;;;;;;73.62;30.23;;;;;;;-0.23;85.67;100565.80;3326864;84;20990;-73
2022/11/25 03:05:09;;;;;;;85.35;31.57;;;;;;;-0.25;85.71;100558.44;3321173;84;21404;-73
2022/11/25 03:10:00;;;;;;;81.37;29.82;;;;;;;-0.26;85.85;100566.02;3294058;84;21033;-73
2022/11/25 03:14:51;;;;;;;77.60;29.07;;;;;;;-0.28;85.83;100565.05;3278547;84;21445;-72
2022/11/25 03:19:44;;;;;;;77.80;31.55;;;;;;;-0.27;85.97;100579.56;3298287;84;21488;-72
2022/11/25 03:24:36;;;;;;;81.25;30.15;;;;;;;-0.27;85.98;100578.29;3245001;84;21010;-72
2022/11/25 03:29:28;;;;;;;69.87;27.87;;;;;;;-0.26;85.99;100580.06;3261833;86;21035;-72
2022/11/25 03:34:22;;;;;;;71.67;28.67;;;;;;;-0.25;86.03;100578.88;3253885;86;20940;-72
2022/11/25 03:39:14;;;;;;;78.02;30.82;;;;;;;-0.24;86.05;100582.31;3192553;88;20977;-73
2022/11/25 03:44:06;;;;;;;77.15;28.07;;;;;;;-0.23;86.02;100585.36;3333361;84;20959;-72
2022/11/25 03:48:58;;;;;;;80.03;32.23;;;;;;;-0.23;86.04;100591.75;3315070;84;21033;-72
2022/11/25 03:53:49;;;;;;;76.80;28.23;;;;;;;-0.23;86.02;100608.36;3342305;82;22711;-73
2022/11/25 03:58:41;;;;;;;78.87;28.83;;;;;;;-0.26;86.01;100606.48;3371870;82;21006;-73
2022/11/25 04:03:33;;;;;;;75.87;28.85;;;;;;;-0.26;86.04;100604.34;3348226;82;21074;-73
2022/11/25 04:08:26;;;;;;;83.25;29.45;;;;;;;-0.26;86.13;100604.34;3375669;82;20994;-73
2022/11/25 04:13:21;;;;;;;80.30;29.92;;;;;;;-0.27;86.12;100612.78;3369339;82;20963;-73
2022/11/25 04:18:14;;;;;;;72.87;29.20;;;;;;;-0.27;86.12;100605.12;3375348;82;21028;-73
2022/11/25 04:23:08;;;;;;;87.55;27.85;;;;;;;-0.29;85.96;100614.38;3345700;82;20950;-73
2022/11/25 04:28:02;;;;;;;72.30;27.73;;;;;;;-0.31;86.02;100617.23;3379411;82;21290;-73
2022/11/25 04:32:55;;;;;;;90.92;31.45;;;;;;;-0.30;86.26;100617.73;3354960;82;21053;-73
2022/11/25 04:37:49;;;;;;;83.58;30.40;;;;;;;-0.28;86.24;100627.64;3346996;82;21051;-73
2022/11/25 04:42:40;;;;;;;81.22;30.17;;;;;;;-0.27;86.33;100628.11;3354043;82;21226;-73
2022/11/25 04:47:33;;;;;;;66.15;27.00;;;;;;;-0.30;86.24;100635.62;3371025;82;20990;-73
2022/11/25 04:52:25;;;;;;;72.37;28.05;;;;;;;-0.28;86.43;100639.14;3351300;83;20978;-73
2022/11/25 04:57:20;;;;;;;88.07;30.88;;;;;;;-0.28;86.26;100642.57;3314960;84;22207;-73
2022/11/25 05:02:16;;;;;;;81.35;28.67;;;;;;;-0.31;86.13;100637.67;3308662;84;20956;-73
2022/11/25 05:07:10;;;;;;;78.30;27.55;;;;;;;-0.32;86.18;100648.67;3327624;84;20982;-73
2022/11/25 05:12:04;;;;;;;82.33;29.12;;;;;;;-0.30;86.31;100643.28;3277909;84;21009;-73
2022/11/25 05:16:56;;;;;;;76.42;26.15;;;;;;;-0.32;86.21;100648.67;3320766;84;21041;-73
2022/11/25 05:21:47;;;;;;;82.62;29.20;;;;;;;-0.32;86.47;100655.06;3267202;84;21467;-73
2022/11/25 05:26:39;;;;;;;79.03;28.80;;;;;;;-0.30;86.47;100662.45;3340088;84;21011;-72
2022/11/25 05:31:31;;;;;;;77.22;28.42;;;;;;;-0.29;86.49;100657.80;3359292;82;21589;-73
2022/11/25 05:36:24;;;;;;;88.75;28.98;;;;;;;-0.27;86.35;100671.55;3315100;83;21616;-73
2022/11/25 05:41:15;;;;;;;79.15;29.98;;;;;;;-0.27;86.50;100663.89;3313117;84;20955;-72
2022/11/25 05:46:09;;;;;;;74.45;30.08;;;;;;;-0.27;86.55;100663.52;3298650;84;20970;-73
2022/11/25 05:51:04;;;;;;;84.85;32.13;;;;;;;-0.29;86.37;100665.47;3291448;84;20989;-75
2022/11/25 05:56:00;;;;;;;78.00;27.30;;;;;;;-0.31;86.34;100668.34;3344274;83;21026;-74
2022/11/25 06:00:53;;;;;;;90.97;32.08;;;;;;;-0.32;86.50;100676.41;3328713;83;21010;-73
2022/11/25 06:05:46;;;;;;;84.45;28.55;;;;;;;-0.28;86.62;100682.58;3351241;83;20991;-73
2022/11/25 06:10:39;;;;;;;87.40;31.33;;;;;;;-0.24;86.71;100680.69;3350762;83;21291;-74
2022/11/25 06:15:33;;;;;;;86.78;32.45;;;;;;;-0.21;86.74;100679.60;3300488;83;20951;-74
2022/11/25 06:20:25;;;;;;;92.37;31.65;;;;;;;-0.18;86.60;100684.00;3365248;83;21184;-74
2022/11/25 06:25:17;;;;;;;90.53;33.08;;;;;;;-0.16;86.55;100690.98;3342872;83;21536;-73
2022/11/25 06:30:11;;;;;;;82.15;30.20;;;;;;;-0.16;86.50;100694.81;3332958;83;21034;-73
2022/11/25 06:35:03;;;;;;;76.72;31.23;;;;;;;-0.16;86.41;100687.15;3317633;83;21062;-74
2022/11/25 06:39:56;;;;;;;84.52;31.97;;;;;;;-0.14;86.52;100689.39;3319003;83;20947;-73
2022/11/25 06:44:47;;;;;;;78.33;30.05;;;;;;;-0.10;86.58;100701.55;3349982;83;22640;-73
2022/11/25 06:49:39;;;;;;;62.33;25.82;;;;;;;-0.08;86.42;100694.86;3343160;83;21038;-73
2022/11/25 06:54:30;;;;;;;63.42;25.92;;;;;;;-0.05;86.46;100700.16;3351699;83;21595;-73
2022/11/25 06:59:21;;;;;;;59.25;26.42;;;;;;;-0.03;86.56;100704.96;3373557;83;21054;-74
2022/11/25 07:04:12;;;;;;;58.70;25.65;;;;;;;0.06;86.54;100708.86;3326845;83;21006;-73
2022/11/25 07:09:05;;;;;;;64.82;26.93;;;;;;;0.12;86.51;100705.37;3346752;83;21528;-73
2022/11/25 07:14:00;;;;;;;64.17;25.82;;;;;;;0.12;86.32;100714.33;3313269;83;21002;-73
2022/11/25 07:18:52;;;;;;;51.00;24.67;;;;;;;0.15;86.44;100713.23;3354355;83;21074;-73
2022/11/25 07:23:45;;;;;;;48.65;21.45;;;;;;;0.21;86.39;100716.14;3337864;83;21022;-73
2022/11/25 07:28:38;;;;;;;52.75;23.27;;;;;;;0.24;86.40;100717.61;3308677;83;21024;-73
2022/11/25 07:33:29;;;;;;;45.88;20.35;;;;;;;0.28;86.25;100719.53;3308226;83;21146;-73
2022/11/25 07:38:20;;;;;;;38.42;20.55;;;;;;;0.30;86.19;100725.63;3317259;83;21525;-73
2022/11/25 07:43:11;;;;;;;48.00;21.30;;;;;;;0.31;86.08;100735.48;3340333;83;21086;-73
2022/11/25 07:48:03;;;;;;;43.38;19.87;;;;;;;0.32;86.15;100730.45;3361930;83;21469;-74
2022/11/25 07:52:54;;;;;;;36.88;19.52;;;;;;;0.33;86.08;100739.88;3342376;82;20942;-73
2022/11/25 07:57:45;;;;;;;41.42;21.30;;;;;;;0.34;85.87;100735.63;3412037;82;22011;-73
2022/11/25 08:02:36;;;;;;;37.78;20.27;;;;;;;0.36;86.00;100734.95;3392471;82;20998;-73
2022/11/25 08:07:27;;;;;;;35.70;19.23;;;;;;;0.41;86.01;100734.32;3342511;82;20961;-73
2022/11/25 08:12:18;;;;;;;45.88;23.25;;;;;;;0.49;85.97;100736.94;3424303;82;20984;-73
2022/11/25 08:17:10;;;;;;;37.45;19.73;;;;;;;0.55;85.97;100746.23;3376070;82;20941;-73
2022/11/25 08:22:01;;;;;;;45.65;22.42;;;;;;;0.63;85.76;100742.86;3391897;82;21680;-74
2022/11/25 08:26:53;;;;;;;39.67;19.20;;;;;;;0.70;85.70;100749.69;3409231;82;21001;-73
2022/11/25 08:31:46;;;;;;;41.55;21.55;;;;;;;0.75;85.69;100753.39;3394266;82;21107;-73
2022/11/25 08:36:37;;;;;;;41.15;21.45;;;;;;;0.81;85.61;100762.22;3383021;82;20985;-73
2022/11/25 08:41:36;;;;;;;42.13;21.42;;;;;;;0.81;85.50;100763.50;3368509;83;21025;-73
2022/11/25 08:46:32;;;;;;;47.98;23.10;;;;;;;0.83;85.14;100765.74;3374637;82;21699;-74
2022/11/25 08:51:31;;;;;;;52.78;23.75;;;;;;;0.82;85.29;100772.92;3365260;82;21015;-74
2022/11/25 08:56:25;;;;;;;42.35;21.30;;;;;;;0.89;85.29;100774.62;3356888;82;21058;-73
2022/11/25 09:01:18;;;;;;;53.15;24.52;;;;;;;0.96;84.93;100787.39;3331761;82;21014;-75
2022/11/25 09:06:11;;;;;;;40.88;20.27;;;;;;;1.00;85.07;100785.48;3403537;82;20975;-74
2022/11/25 09:11:03;;;;;;;41.92;19.52;;;;;;;1.05;84.93;100786.63;3400130;81;22131;-74
2022/11/25 09:15:54;;;;;;;47.00;22.15;;;;;;;1.06;84.76;100788.41;3412818;81;22302;-74
2022/11/25 09:20:46;;;;;;;49.58;23.25;;;;;;;1.09;84.87;100788.58;3324128;82;21034;-74
2022/11/25 09:25:38;;;;;;;44.48;20.72;;;;;;;1.13;84.76;100787.08;3336325;82;20952;-74
2022/11/25 09:30:31;;;;;;;52.67;22.10;;;;;;;1.13;84.75;100793.07;3372681;82;21049;-74
2022/11/25 09:35:24;;;;;;;46.23;20.00;;;;;;;1.18;84.53;100791.16;3332598;82;22313;-73
2022/11/25 09:40:26;;;;;;;52.50;22.32;;;;;;;1.21;84.42;100787.49;3363577;82;21010;-74
2022/11/25 09:50:47;;;;;;;47.33;21.48;;;;;;;1.16;84.56;100787.62;3398302;82;22106;-73
2022/11/25 09:55:46;;;;;;;40.30;21.50;;;;;;;1.14;84.67;100785.89;3434243;81;20954;-73
2022/11/25 10:00:42;;;;;;;47.62;23.38;;;;;;;1.18;84.73;100788.22;3355922;82;21212;-74
2022/11/25 10:05:48;;;;;;;44.30;21.02;;;;;;;1.21;84.64;100790.05;3404245;82;21087;-74
2022/11/25 10:10:44;;;;;;;50.23;24.65;;;;;;;1.20;84.66;100795.95;3380864;82;21191;-74
2022/11/25 10:15:43;;;;;;;54.83;26.25;;;;;;;1.19;84.70;100801.48;3360353;83;28469;-74
2022/11/25 10:20:38;;;;;;;53.23;26.87;;;;;;;1.17;84.63;100800.94;3362558;82;20939;-73
2022/11/25 10:25:34;;;;;;;58.10;25.85;;;;;;;1.14;84.78;100805.09;3398359;82;21662;-73
2022/11/25 10:30:45;;;;;;;50.63;25.80;;;;;;;1.17;84.85;100804.77;3415244;82;20996;-74
2022/11/25 10:36:15;;;;;;;51.15;25.25;;;;;;;1.13;84.79;100811.00;3395431;82;22086;-73
2022/11/25 10:41:08;;;;;;;59.75;25.70;;;;;;;1.09;84.88;100812.91;3443284;82;21076;-73
2022/11/25 10:46:23;;;;;;;64.77;27.93;;;;;;;1.08;84.89;100812.41;3415341;82;21008;-74
2022/11/25 10:51:39;;;;;;;53.10;27.13;;;;;;;1.04;85.01;100819.45;3420797;82;22092;-74
2022/11/25 10:56:42;;;;;;;51.60;24.43;;;;;;;1.04;85.00;100823.29;3465783;82;21036;-74
2022/11/25 11:01:33;;;;;;;62.03;30.40;;;;;;;0.97;85.00;100827.58;3388504;82;21410;-73
2022/11/25 11:06:38;;;;;;;64.82;27.80;;;;;;;0.90;85.06;100827.61;3367235;82;21482;-74
2022/11/25 11:11:31;;;;;;;51.58;27.00;;;;;;;0.89;85.23;100822.40;3418701;82;21561;-72
2022/11/25 11:16:30;;;;;;;58.55;27.40;;;;;;;0.87;85.29;100834.23;3399923;82;21072;-74
2022/11/25 11:21:32;;;;;;;62.35;29.55;;;;;;;0.88;85.34;100836.02;3442134;80;22376;-74
2022/11/25 11:26:35;;;;;;;63.35;27.20;;;;;;;0.90;85.54;100822.90;3463597;82;20965;-73
2022/11/25 11:31:38;;;;;;;62.05;27.85;;;;;;;0.97;85.58;100825.38;3408205;82;21134;-74
2022/11/25 11:37:03;;;;;;;56.77;28.80;;;;;;;1.00;85.42;100826.45;3360801;82;20948;-74
2022/11/25 11:42:08;;;;;;;55.78;26.77;;;;;;;0.99;85.27;100829.82;3391243;82;21451;-74
2022/11/25 11:47:11;;;;;;;53.28;25.10;;;;;;;1.00;85.41;100823.88;3439476;82;21225;-74
2022/11/25 11:52:14;;;;;;;58.68;29.92;;;;;;;1.05;85.38;100831.44;3455817;82;20973;-74
2022/11/25 11:57:34;;;;;;;66.10;31.48;;;;;;;1.03;85.33;100833.03;3417788;81;21444;-73
2022/11/25 12:02:50;;;;;;;68.10;33.05;;;;;;;1.05;85.30;100835.27;3423439;82;21538;-73
2022/11/25 12:08:19;;;;;;;68.83;32.45;;;;;;;1.02;85.20;100837.69;3444688;82;21494;-73
2022/11/25 12:13:31;;;;;;;62.45;28.25;;;;;;;1.00;85.21;100839.25;3409640;82;20908;-73
2022/11/25 12:18:52;;;;;;;65.95;29.45;;;;;;;1.02;85.44;100840.25;3442421;82;21432;-73
2022/11/25 12:24:26;;;;;;;68.75;31.85;;;;;;;1.06;85.51;100839.62;3415636;82;20988;-73
2022/11/25 12:29:26;;;;;;;66.60;30.90;;;;;;;1.12;85.49;100833.95;3423058;82;20991;-75
2022/11/25 12:34:39;;;;;;;71.17;33.08;;;;;;;1.13;85.40;100836.61;3414186;83;21054;-75
2022/11/25 12:39:42;;;;;;;67.03;33.15;;;;;;;1.17;85.54;100838.95;3398529;83;21057;-73
2022/11/25 12:44:51;;;;;;;63.33;31.42;;;;;;;1.14;85.43;100831.98;3426588;82;20967;-74
2022/11/25 12:49:49;;;;;;;73.15;34.58;;;;;;;1.19;85.56;100832.63;3399392;82;20997;-73
2022/11/25 12:55:12;;;;;;;73.05;35.45;;;;;;;1.14;85.38;100830.70;3379759;83;20994;-74
2022/11/25 13:00:20;;;;;;;69.35;31.57;;;;;;;1.14;85.35;100835.83;3368847;83;21054;-74
2022/11/25 13:06:00;;;;;;;74.92;32.55;;;;;;;1.15;85.42;100837.98;3360737;83;20986;-74
2022/11/25 13:11:35;;;;;;;71.60;33.18;;;;;;;1.16;85.59;100842.70;3355686;83;21068;-74
2022/11/25 13:16:27;;;;;;;68.95;33.48;;;;;;;1.18;85.67;100841.09;3389614;82;20934;-73
2022/11/25 13:21:19;;;;;;;77.30;35.17;;;;;;;1.18;85.62;100838.53;3370066;82;20917;-73
2022/11/25 13:26:35;;;;;;;58.63;31.80;;;;;;;1.17;85.64;100845.75;3367269;83;22136;-74
2022/11/25 13:31:33;;;;;;;74.00;36.10;;;;;;;1.14;85.72;100849.91;3317947;84;21038;-73
2022/11/25 13:36:44;;;;;;;71.57;33.58;;;;;;;1.11;85.75;100842.05;3317149;84;20989;-74
2022/11/25 13:41:45;;;;;;;64.95;31.40;;;;;;;1.07;85.75;100841.39;3325606;84;21629;-73
2022/11/25 13:46:44;;;;;;;63.80;32.63;;;;;;;1.08;85.85;100843.14;3329792;84;21021;-73
2022/11/25 13:51:36;;;;;;;69.65;31.50;;;;;;;1.06;85.91;100856.67;3279703;84;21439;-73
2022/11/25 13:56:34;;;;;;;70.52;34.58;;;;;;;1.06;86.01;100854.98;3287001;84;21005;-74
2022/11/25 14:01:26;;;;;;;74.37;35.45;;;;;;;1.03;86.01;100859.91;3326520;84;21013;-74
2022/11/25 14:06:34;;;;;;;62.50;32.67;;;;;;;1.01;85.98;100873.03;3331048;84;21658;-73
2022/11/25 14:11:46;;;;;;;66.57;35.17;;;;;;;0.99;86.17;100870.79;3389530;83;21006;-73
2022/11/25 14:17:15;;;;;;;73.52;34.65;;;;;;;0.99;86.33;100878.47;3377448;82;22000;-73
2022/11/25 14:22:27;;;;;;;65.78;33.13;;;;;;;0.98;86.37;100881.81;3400080;82;21531;-74
2022/11/25 14:27:28;;;;;;;60.55;29.30;;;;;;;0.95;86.33;100885.09;3369817;84;20941;-73
2022/11/25 14:32:32;;;;;;;65.37;32.28;;;;;;;0.96;86.44;100891.08;3348672;82;20989;-74
2022/11/25 14:37:49;;;;;;;64.80;32.50;;;;;;;0.94;86.38;100883.71;3394108;82;21009;-73
2022/11/25 14:42:45;;;;;;;51.30;25.33;;;;;;;0.93;86.49;100884.13;3393406;82;22011;-74
2022/11/25 14:47:37;;;;;;;63.13;32.50;;;;;;;0.92;86.47;100894.27;3367078;82;20999;-73
2022/11/25 14:52:35;;;;;;;65.52;34.43;;;;;;;0.91;86.61;100888.64;3374937;82;20948;-73
2022/11/25 14:57:29;;;;;;;;;;;;;;;0.90;86.68;100894.58;3363710;83;21026;-73
2022/11/25 15:02:28;;;;;;;68.20;34.43;;;;;;;0.87;86.52;100902.06;3332269;84;20432;-73
2022/11/25 15:07:22;;;;;;;64.30;33.10;;;;;;;0.84;86.77;100890.36;3320270;85;21161;-73
2022/11/25 15:12:18;;;;;;;59.03;32.10;;;;;;;0.85;86.85;100890.86;3335028;84;21749;-73
2022/11/25 15:17:27;;;;;;;61.92;33.00;;;;;;;0.84;86.69;100901.87;3333168;83;21070;-73
2022/11/25 15:22:20;;;;;;;68.70;35.20;;;;;;;0.83;86.79;100906.53;3329158;83;21035;-73
2022/11/25 15:27:20;;;;;;;59.00;32.35;;;;;;;0.83;86.86;100907.41;3334590;84;21026;-75
2022/11/25 15:32:27;;;;;;;65.50;32.63;;;;;;;0.85;86.95;100912.62;3305475;85;21245;-73
2022/11/25 15:37:19;;;;;;;58.83;32.85;;;;;;;0.86;86.95;100907.97;3321225;83;21533;-72
2022/11/25 15:42:23;;;;;;;62.40;31.68;;;;;;;0.87;86.98;100913.59;3318412;83;21337;-74
2022/11/25 15:47:24;;;;;;;66.12;34.60;;;;;;;0.89;87.07;100914.56;3346834;84;20971;-73
2022/11/25 15:52:19;;;;;;;65.75;34.65;;;;;;;0.88;86.94;100910.25;3357849;84;20925;-73
2022/11/25 15:57:30;;;;;;;61.95;32.23;;;;;;;0.88;87.00;100911.53;3372294;82;21131;-73
2022/11/25 16:02:46;;;;;;;69.92;35.28;;;;;;;0.87;87.08;100914.46;3407863;83;21019;-74
2022/11/25 16:07:56;;;;;;;56.63;30.92;;;;;;;0.89;87.07;100920.96;3370903;83;21006;-73
2022/11/25 16:13:27;;;;;;;64.60;34.40;;;;;;;0.90;87.12;100918.90;3382933;82;21040;-73
2022/11/25 16:18:20;;;;;;;59.90;30.82;;;;;;;0.88;87.07;100920.09;3383463;82;21753;-73
2022/11/25 16:23:14;;;;;;;69.95;33.85;;;;;;;0.86;87.05;100910.16;3385767;83;21976;-72
2022/11/25 16:28:21;;;;;;;67.53;34.67;;;;;;;0.87;87.21;100922.14;3396388;82;21023;-72
2022/11/25 16:33:13;;;;;;;64.83;35.20;;;;;;;0.87;87.25;100910.63;3390129;82;21023;-72
2022/11/25 16:38:04;;;;;;;64.65;34.10;;;;;;;0.90;87.23;100915.06;3381105;82;21063;-72
2022/11/25 16:42:55;;;;;;;65.73;35.00;;;;;;;0.88;87.17;100919.21;3373252;82;20989;-72
2022/11/25 16:47:46;;;;;;;70.90;35.03;;;;;;;0.91;87.31;100920.65;3372203;82;21210;-73
2022/11/25 16:52:37;;;;;;;69.72;34.67;;;;;;;0.90;87.16;100921.05;3349789;83;21255;-72
2022/11/25 16:57:28;;;;;;;78.57;36.42;;;;;;;0.91;87.19;100933.45;3347039;82;20986;-73
2022/11/25 17:02:21;;;;;;;67.32;35.28;;;;;;;0.89;87.10;100922.23;3356003;82;21101;-73
2022/11/25 17:07:15;;;;;;;72.05;34.92;;;;;;;0.88;87.24;100916.65;3397255;82;21349;-73
2022/11/25 17:12:12;;;;;;;64.58;34.45;;;;;;;0.87;87.19;100931.52;3373124;82;21179;-73
2022/11/25 17:17:03;;;;;;;72.93;34.70;;;;;;;0.88;87.32;100938.41;3368346;82;21590;-72
2022/11/25 17:21:55;;;;;;;60.28;30.85;;;;;;;0.89;87.28;100935.91;3354080;82;20982;-72
2022/11/25 17:26:51;;;;;;;54.50;30.90;;;;;;;0.89;87.31;100943.59;3423082;82;21002;-72
2022/11/25 17:31:43;;;;;;;59.37;28.90;;;;;;;0.88;87.24;100952.49;3407265;81;21520;-72
2022/11/25 17:36:34;;;;;;;65.83;31.62;;;;;;;0.84;87.21;100950.14;3368357;82;22201;-73
2022/11/25 17:41:28;;;;;;;65.55;30.80;;;;;;;0.84;87.25;100946.67;3348488;82;21005;-72
2022/11/25 17:46:20;;;;;;;64.50;32.58;;;;;;;0.84;87.41;100950.52;3400478;82;20961;-72
2022/11/25 17:51:13;;;;;;;57.80;28.83;;;;;;;0.86;87.48;100953.67;3406917;81;20958;-72
2022/11/25 17:56:27;;;;;;;67.65;32.78;;;;;;;0.87;87.49;100955.83;3385611;82;21006;-71
2022/11/25 18:01:19;;;;;;;68.52;34.58;;;;;;;0.87;87.53;100954.14;3373774;82;21012;-72
2022/11/25 18:06:10;;;;;;;73.75;33.80;;;;;;;0.88;87.59;100953.77;3351462;83;21002;-72
2022/11/25 18:11:06;;;;;;;68.28;32.73;;;;;;;0.90;87.57;100950.91;3310694;82;21607;-72
2022/11/25 18:27:52;;;;;;;;;;;;;;;;;;;;;
2022/11/25 18:39:23;;;;;;;65.08;33.15;;;;;;;0.91;87.66;100962.52;3046173;92;21116;-72
2022/11/25 18:49:40;;;;;;;75.35;34.48;;;;;;;0.89;87.70;100974.72;2978784;94;21592;-72
2022/11/25 18:54:59;;;;;;;75.40;38.50;;;;;;;0.90;87.69;100976.50;3010062;93;23084;-72
2022/11/25 19:00:09;;;;;;;79.17;36.30;;;;;;;0.91;87.78;100974.41;2949274;95;21051;-72
2022/11/25 19:11:20;;;;;;;;;;;;;;;;;;;;;
2022/11/25 19:16:07;;;;;;;72.67;34.75;;;;;;;0.90;87.80;100972.66;2972395;92;21085;-72
2022/11/25 19:20:58;;;;;;;81.67;42.70;;;;;;;0.91;87.92;100976.97;3067945;90;22910;-72
2022/11/25 19:25:59;;;;;;;82.90;39.80;;;;;;;0.92;87.92;100982.59;3060894;91;21077;-72
2022/11/25 19:31:09;;;;;;;87.62;42.88;;;;;;;0.93;88.02;100980.50;3055226;91;21041;-72
2022/11/25 19:36:30;;;;;;;90.92;44.48;;;;;;;0.94;87.90;100987.41;2952605;93;22688;-72
2022/11/25 19:41:57;;;;;;;;;;;;;;;;;;;;;
2022/11/25 19:52:48;;;;;;;88.80;43.85;;;;;;;0.92;88.16;100996.67;3067002;91;21271;-72
2022/11/25 19:57:42;;;;;;;96.97;44.85;;;;;;;0.94;88.22;101004.92;3013760;92;21665;-73
2022/11/25 20:09:03;;;;;;;84.03;44.18;;;;;;;0.96;88.12;101017.82;3069990;91;21038;-71
2022/11/25 20:13:55;;;;;;;102.72;46.18;;;;;;;0.95;88.20;101022.47;3076502;91;21038;-72
2022/11/25 20:18:47;;;;;;;88.00;42.75;;;;;;;0.97;88.30;101033.69;3035160;91;21069;-72
2022/11/25 20:23:41;;;;;;;98.30;46.50;;;;;;;0.97;88.09;101037.90;2991460;92;21047;-72
2022/11/25 20:28:33;;;;;;;98.95;47.85;;;;;;;0.99;88.34;101044.91;3039833;91;21568;-72
2022/11/25 20:33:25;;;;;;;86.55;43.00;;;;;;;0.98;88.20;101049.52;3212515;84;21324;-72
2022/11/25 20:38:23;;;;;;;96.42;47.75;;;;;;;0.97;88.12;101043.93;3310924;84;21112;-72
2022/11/25 20:43:29;;;;;;;109.22;49.50;;;;;;;0.98;88.27;101048.23;3297793;85;20996;-72
2022/11/25 20:48:20;;;;;;;101.75;50.43;;;;;;;1.00;88.35;101050.90;3333077;84;21013;-72
2022/11/25 20:53:16;;;;;;;99.13;46.37;;;;;;;0.99;88.34;101056.42;3322545;84;22018;-72
2022/11/25 20:58:28;;;;;;;102.27;48.35;;;;;;;0.99;88.22;101065.39;3323219;84;21054;-72
2022/11/25 21:03:20;;;;;;;98.55;47.23;;;;;;;0.97;88.12;101069.53;3345726;84;21510;-72
2022/11/25 21:08:22;;;;;;;101.78;48.33;;;;;;;0.97;88.13;101063.50;3378582;83;21037;-72
2022/11/25 21:13:26;;;;;;;89.95;43.70;;;;;;;0.97;88.23;101066.97;3354646;82;21016;-72
2022/11/25 21:18:18;;;;;;;104.43;49.50;;;;;;;0.97;88.13;101071.19;3351132;84;20978;-72
2022/11/25 21:23:32;;;;;;;105.37;50.58;;;;;;;0.96;88.24;101065.19;3328488;82;20933;-72
2022/11/25 21:28:26;;;;;;;99.80;48.58;;;;;;;0.98;88.45;101067.84;3394794;83;21175;-72
2022/11/25 21:33:17;;;;;;;109.78;47.25;;;;;;;0.98;88.36;101071.28;3371171;82;21575;-72
2022/11/25 21:38:22;;;;;;;97.92;46.75;;;;;;;1.00;88.38;101074.82;3374407;83;21023;-72
2022/11/25 21:43:23;;;;;;;91.40;45.05;;;;;;;1.00;88.41;101072.66;3402022;82;20976;-71
2022/11/25 21:48:22;;;;;;;95.83;46.63;;;;;;;0.97;88.25;101074.66;3421526;82;21009;-72
2022/11/25 21:53:14;;;;;;;102.65;44.53;;;;;;;0.94;88.22;101075.33;3397002;82;21489;-72
2022/11/25 21:58:19;;;;;;;92.65;45.48;;;;;;;0.94;88.33;101077.02;3327454;84;21045;-72
2022/11/25 22:03:16;;;;;;;110.50;48.25;;;;;;;0.95;88.46;101074.96;3291517;84;20938;-72
2022/11/25 22:08:08;;;;;;;91.12;46.15;;;;;;;0.95;88.33;101073.69;3370497;82;20967;-72
2022/11/25 22:12:59;;;;;;;96.17;44.55;;;;;;;0.96;88.44;101079.27;3317588;84;20935;-72
2022/11/25 22:17:55;;;;;;;105.20;47.98;;;;;;;0.97;88.39;101077.22;3348192;84;21524;-72
2022/11/25 22:22:46;;;;;;;82.42;39.03;;;;;;;0.96;88.35;101084.39;3330515;84;20970;-72
2022/11/25 22:27:38;;;;;;;77.17;38.13;;;;;;;0.95;88.36;101089.05;3297063;84;20939;-72
2022/11/25 22:32:29;;;;;;;103.15;46.70;;;;;;;0.93;88.41;101102.12;3298575;84;21005;-72
2022/11/25 22:37:23;;;;;;;91.85;41.60;;;;;;;0.93;88.43;101100.84;3331458;84;21018;-72
2022/11/25 22:42:30;;;;;;;102.20;45.08;;;;;;;0.92;88.40;101099.97;3350545;84;21046;-72
2022/11/25 22:47:42;;;;;;;98.33;46.15;;;;;;;0.93;88.46;101104.31;3338360;84;21730;-73
2022/11/25 22:52:35;;;;;;;98.58;44.10;;;;;;;0.96;88.60;101104.87;3295830;84;20975;-72
2022/11/25 22:57:26;;;;;;;111.12;46.02;;;;;;;0.96;88.56;101111.28;3351978;83;20982;-72
2022/11/25 23:02:21;;;;;;;103.92;45.28;;;;;;;0.97;88.57;101108.31;3304501;84;20977;-72
2022/11/25 23:07:12;;;;;;;108.67;48.85;;;;;;;0.99;88.54;101114.45;3322709;83;21541;-72
2022/11/25 23:12:03;;;;;;;99.37;47.17;;;;;;;0.99;88.49;101115.72;3349022;83;21079;-73
2022/11/25 23:16:55;;;;;;;104.60;46.30;;;;;;;0.98;88.50;101119.94;3357234;83;20997;-72
2022/11/25 23:21:46;;;;;;;102.20;44.65;;;;;;;0.99;88.47;101123.00;3307115;83;21017;-72
2022/11/25 23:26:37;;;;;;;106.72;43.55;;;;;;;0.99;88.52;101126.84;3330646;83;20959;-72
2022/11/25 23:31:29;;;;;;;93.37;41.28;;;;;;;1.00;88.36;101132.84;3312474;84;21200;-71
2022/11/25 23:36:25;;;;;;;107.22;43.70;;;;;;;0.97;88.40;101130.98;3328756;83;20986;-72
2022/11/25 23:41:25;;;;;;;108.00;46.13;;;;;;;0.98;88.51;101134.02;3380718;83;21444;-71
2022/11/25 23:46:20;;;;;;;118.20;50.85;;;;;;;0.99;88.57;101133.24;3382612;83;21117;-73